Amherst, Canada
Current Conditions -  °F | °C
As of 12:00 AM on Saturday 25 Oct 2014 (Local Time) from CYQM Reporting Station
Drizzle Drizzle  
Wind Chill:   Ceiling: 300
Heat Index:   Visibility: 2mi
Dew Point:   Wind: 15mph
Humidity: 93%   Direction: 350°N
Pressure: 29.48"   Gusts: 23mph
Location:  45.85°N, 64.27°W
Report Text: CYQM 250300Z 35013G20KT 2SM -DZ BR OVC003 09/08 A2948 RMK SF8 SLP986
Loading
Personal Weather Stations






























Interactive Weather Map
Tropical Storm Tracking
New forecast layout! Learn more

10-Day Weather Forecast

Advertisements
Track Severe Weather on mobile